Telluride, CO

6:58 PM MDT on August 21, 2014 (GMT -0600)
Telluride Regional | Change Station
CLOSE
Current Station
Airport
Location: Telluride,
Elevation: 9078 ft
Nearby Weather Stations

Elev 9078 ft 37.95 °N, 107.91 °W | Updated 21 minutes ago

Mostly Cloudy
Mostly Cloudy
57 °F
Feels Like 57 °F
N
5
Wind Variable Wind from SSE

Today
High -- | Low -- °F
--% Chance of Precip.
Yesterday
High -- | Low -- °F
Precip. -- in
6:31 AM 7:56 PM
Waning Crescent, 11% visible
Pressure 30.38 in
Visibility 10.0 miles
Clouds Scattered Clouds 8000 ft
Mostly Cloudy 9000 ft
Dew Point 45 °F
Humidity 63%
Rainfall 0.00 in
Snow Depth 0 in , 0 in , 0 in
UV 1 out of 12
Pollen 8.90 out of 12
Air Quality Not available.
Flu Activity Not available.
METAR KTEX 220037Z AUTO 15004KT 10SM SCT080 BKN090 14/07 A3038 RMK AO2

More Conditions Fewer Conditions

Pressure 30.38 in
Visibility 10.0 miles
Clouds Scattered Clouds 8000 ft
Mostly Cloudy 9000 ft
Dew Point 45 °F
Humidity 63%
Rainfall 0.00 in
Snow Depth 0 in , 0 in , 0 in
UV 1 out of 12
Pollen 8.90 out of 12
Air Quality Not available.
Flu Activity Not available.
METAR KTEX 220037Z AUTO 15004KT 10SM SCT080 BKN090 14/07 A3038 RMK AO2

More Conditions Fewer Conditions

10-Day Weather Forecast

Almanac

Astronomy

Aug. 21, 2014 Rise Set
Actual Time 6:31 AM MDT 7:56 PM MDT
Civil Twilight 6:04 AM MDT 8:23 PM MDT
Nautical Twilight 5:31 AM MDT 8:56 PM MDT
Astronomical Twilight 4:56 AM MDT 9:31 PM MDT
Moon 3:06 AM MDT (8/21) 5:25 PM MDT (8/21)
Length of Visible Light 14h 19m
Length of Day
13h 24m
Tomorrow will be 2m 14s shorter.
Waning Crescent, 11% of the Moon is Illuminated
Today
Waning Crescent
Aug 25
New
Sep 2
First Quarter
Sep 8
Full
Sep 15
Last Quarter

Today's Extremes

State Highs State Lows

Community

WunderPhotos

Upload Photos

1,746,088 photos uploaded!

Nearby

Snow Depth

Station Depth Elevation
Red Mountain Pass 0 in 11150 ft
Mineral Creek 0 in 10040 ft
Lizard Head Pass 0 in 10200 ft
El Diente Peak 0 in 10200 ft
Lone Cone 0 in 9600 ft

Earthquake Activity

City Distance Mag. Time & Date
No recent earthquake activity has been reported nearby.
Minimum magnitude displayed is 2.5.

Coastal Water Temperatures

Place Temperature
No Stations Reporting

Nearby Weather Stations